LIBP/PSR METAR and TAF weather

Enter ICAO airport designator
Station Type Date Time Source
LIBP METAR 2022/05/23 13:50 UTC NOAA

LIBP 231350Z AUTO 05008KT 9999 NCD 27/21 Q1008


Station Type Date Time Source
LIBP Decoded METAR 2022/05/23 13:50 UTC NOAA

Pescara, Italy (LIBP) 42-26N 014-12E 11M
May 23, 2022 - 09:50 AM EDT / 2022.05.23 1350 UTC
Wind: from the NE (050 degrees) at 9 MPH (8 KT):0
Visibility: greater than 7 mile(s):0
Temperature: 80 F (27 C)
Dew Point: 69 F (21 C)
Relative Humidity: 69%
Pressure (altimeter): 29.77 in. Hg (1008 hPa)
ob: LIBP 231350Z AUTO 05008KT 9999 NCD 27/21 Q1008
cycle: 14

Station Type Date Time Source
LIBP TAF 2022/05/23 12:22 UTC NOAA

TAF LIBP 231100Z 2312/2412 06010KT CAVOK
BECMG 2316/2318 VRB05KT
TEMPO 2323/2404 4000 BR

Example: see airport list